createdAt,value
2019-03-09T00:00:55.831Z,6.73
2019-03-09T00:03:25.134Z,9.20
2019-03-09T00:05:54.504Z,5.40
2019-03-09T00:08:23.818Z,4.40
2019-03-09T00:10:53.271Z,6.93
2019-03-09T00:13:22.574Z,6.93
2019-03-09T00:15:51.870Z,5.67
2019-03-09T00:18:21.185Z,5.30
2019-03-09T00:20:50.482Z,5.30
2019-03-09T00:23:24.460Z,3.60
2019-03-09T00:26:11.594Z,4.83
2019-03-09T00:28:58.911Z,6.03
2019-03-09T00:31:35.697Z,6.20
2019-03-09T00:34:05.583Z,8.13
2019-03-09T00:36:35.081Z,5.53
2019-03-09T00:39:06.492Z,6.17
2019-03-09T00:41:35.929Z,6.40
2019-03-09T00:44:05.661Z,8.80
2019-03-09T00:46:35.175Z,7.77
2019-03-09T00:49:04.522Z,5.93
2019-03-09T00:51:33.874Z,6.33
2019-03-09T00:54:03.196Z,8.33
2019-03-09T00:56:32.503Z,4.47
2019-03-09T00:59:01.772Z,6.77
2019-03-09T01:01:31.471Z,6.23
2019-03-09T01:04:00.763Z,6.13
2019-03-09T01:06:32.808Z,8.30
2019-03-09T01:09:02.225Z,6.20
2019-03-09T01:11:31.546Z,5.80
2019-03-09T01:14:00.849Z,6.53
2019-03-09T01:16:30.231Z,6.90
2019-03-09T01:18:59.613Z,6.57
2019-03-09T01:21:29.034Z,6.67
2019-03-09T01:23:58.324Z,6.00
2019-03-09T01:26:27.629Z,7.93
2019-03-09T01:28:56.977Z,6.17
2019-03-09T01:31:26.464Z,6.83
2019-03-09T01:33:55.762Z,7.03
2019-03-09T01:36:25.108Z,7.17
2019-03-09T01:38:54.577Z,5.53
2019-03-09T01:41:23.926Z,6.67
2019-03-09T01:43:53.229Z,4.83
2019-03-09T01:46:22.508Z,5.87
2019-03-09T01:48:51.817Z,5.93
2019-03-09T01:51:21.387Z,4.73
2019-03-09T01:53:50.662Z,5.13
2019-03-09T01:56:20.143Z,4.50
2019-03-09T01:58:49.425Z,4.53
2019-03-09T02:01:19.184Z,3.07
2019-03-09T02:03:48.486Z,3.80
2019-03-09T02:06:17.764Z,4.10
2019-03-09T02:08:47.104Z,5.37
2019-03-09T02:11:16.476Z,4.37
2019-03-09T02:13:45.783Z,5.07
2019-03-09T02:16:15.104Z,3.83
2019-03-09T02:18:44.389Z,4.60
2019-03-09T02:21:13.707Z,4.73
2019-03-09T02:23:42.979Z,2.27
2019-03-09T02:26:12.278Z,3.90
2019-03-09T02:28:41.564Z,2.80
2019-03-09T02:31:10.879Z,3.60
2019-03-09T02:33:40.165Z,3.77
2019-03-09T02:36:09.551Z,3.43
2019-03-09T02:38:46.124Z,2.80
2019-03-09T02:41:15.499Z,3.43
2019-03-09T02:43:44.766Z,2.80
2019-03-09T02:46:14.127Z,3.77
2019-03-09T02:48:43.368Z,2.50
2019-03-09T02:51:12.675Z,3.33
2019-03-09T02:53:41.960Z,2.47
2019-03-09T02:56:11.247Z,1.73
2019-03-09T02:58:40.542Z,2.97
2019-03-09T03:01:26.596Z,2.10
2019-03-09T03:03:56.064Z,3.17
2019-03-09T03:06:26.245Z,2.60
2019-03-09T03:08:55.522Z,1.80
2019-03-09T03:11:24.966Z,3.33
2019-03-09T03:13:54.263Z,2.03
2019-03-09T03:16:23.543Z,3.20
2019-03-09T03:18:53.113Z,2.97
2019-03-09T03:21:22.678Z,2.03
2019-03-09T03:23:51.950Z,1.27
2019-03-09T03:26:21.261Z,1.23
2019-03-09T03:28:50.531Z,2.03
2019-03-09T03:31:19.852Z,1.20
2019-03-09T03:33:49.123Z,1.10
2019-03-09T03:36:18.411Z,1.20
2019-03-09T03:38:47.692Z,1.23
2019-03-09T03:41:17.025Z,1.27
2019-03-09T03:43:46.429Z,1.13
2019-03-09T03:46:15.705Z,1.50
2019-03-09T03:48:45.009Z,1.57
2019-03-09T03:51:14.288Z,1.83
2019-03-09T03:53:43.860Z,1.93
2019-03-09T03:56:13.133Z,1.30
2019-03-09T03:58:42.514Z,0.90
2019-03-09T04:01:12.111Z,1.00
2019-03-09T04:03:41.423Z,0.60
2019-03-09T04:06:10.945Z,1.77
2019-03-09T04:08:40.594Z,1.00
2019-03-09T04:11:09.953Z,1.97
2019-03-09T04:13:39.500Z,0.97
2019-03-09T04:16:08.815Z,0.87
2019-03-09T04:18:38.118Z,0.47
2019-03-09T04:21:07.472Z,1.07
2019-03-09T04:23:36.776Z,0.67
2019-03-09T04:26:06.115Z,1.43
2019-03-09T04:28:35.657Z,0.70
2019-03-09T04:31:04.940Z,1.17
2019-03-09T04:33:34.319Z,0.97
2019-03-09T04:36:03.620Z,0.80
2019-03-09T04:38:32.923Z,1.50
2019-03-09T04:41:02.215Z,1.10
2019-03-09T04:43:31.893Z,0.80
2019-03-09T04:46:01.171Z,0.80
2019-03-09T04:48:30.911Z,1.73
2019-03-09T04:51:00.229Z,1.90
2019-03-09T04:53:29.536Z,1.27
2019-03-09T04:55:59.104Z,0.83
2019-03-09T04:58:28.415Z,1.33
2019-03-09T05:00:57.695Z,1.10
2019-03-09T05:03:26.999Z,0.53
2019-03-09T05:05:56.381Z,1.10
2019-03-09T05:08:37.419Z,1.37
2019-03-09T05:11:08.760Z,1.60
2019-03-09T05:13:40.610Z,0.83
2019-03-09T05:16:09.881Z,1.00
2019-03-09T05:18:39.176Z,0.60
2019-03-09T05:21:08.455Z,0.70
2019-03-09T05:23:37.773Z,0.67
2019-03-09T05:26:07.070Z,1.33
2019-03-09T05:28:36.415Z,0.93
2019-03-09T05:31:05.714Z,1.50
2019-03-09T05:33:35.156Z,1.83
2019-03-09T05:36:04.450Z,1.10
2019-03-09T05:38:34.539Z,1.23
2019-03-09T05:41:03.979Z,0.60
2019-03-09T05:43:33.273Z,0.83
2019-03-09T05:46:02.898Z,1.30
2019-03-09T05:48:32.175Z,2.00
2019-03-09T05:51:01.493Z,3.00
2019-03-09T05:53:30.781Z,1.03
2019-03-09T05:56:00.088Z,0.90
2019-03-09T05:58:29.367Z,1.30
2019-03-09T06:00:58.890Z,0.70
2019-03-09T06:03:28.178Z,1.93
2019-03-09T06:05:58.291Z,2.10
2019-03-09T06:08:27.962Z,1.70
2019-03-09T06:10:57.318Z,1.20
2019-03-09T06:13:26.859Z,2.20
2019-03-09T06:15:56.313Z,1.40
2019-03-09T06:18:25.676Z,2.37
2019-03-09T06:20:55.030Z,2.50
2019-03-09T06:23:24.321Z,2.70
2019-03-09T06:25:53.800Z,1.30
2019-03-09T06:28:23.132Z,1.83
2019-03-09T06:30:52.498Z,2.20
2019-03-09T06:33:24.859Z,2.30
2019-03-09T06:36:06.089Z,2.07
2019-03-09T06:38:41.456Z,1.50
2019-03-09T06:41:13.841Z,2.27
2019-03-09T06:43:43.114Z,2.47
2019-03-09T06:46:12.735Z,2.37
2019-03-09T06:48:42.019Z,2.40
2019-03-09T06:51:11.347Z,2.93
2019-03-09T06:53:40.647Z,4.20
2019-03-09T06:56:09.974Z,1.90
2019-03-09T06:58:39.285Z,3.53
2019-03-09T07:01:20.195Z,2.43
2019-03-09T07:03:49.578Z,1.80
2019-03-09T07:06:19.362Z,1.70
2019-03-09T07:08:49.092Z,2.20
2019-03-09T07:11:18.404Z,2.20
2019-03-09T07:13:52.702Z,5.53
2019-03-09T07:16:19.115Z,13.20
2019-03-09T07:18:49.065Z,7.93
2019-03-09T07:21:18.345Z,12.90
2019-03-09T07:23:47.725Z,12.07
2019-03-09T07:26:16.975Z,6.73
2019-03-09T07:28:46.299Z,5.23
2019-03-09T07:31:15.621Z,8.53
2019-03-09T07:33:44.893Z,8.47
2019-03-09T07:36:14.483Z,11.90
2019-03-09T07:38:43.783Z,4.90
2019-03-09T07:41:13.387Z,9.07
2019-03-09T07:43:48.562Z,6.73
2019-03-09T07:46:19.991Z,4.93
2019-03-09T07:48:50.430Z,2.30
2019-03-09T07:51:20.421Z,2.90
2019-03-09T07:53:50.088Z,2.83
2019-03-09T07:56:20.083Z,3.30
2019-03-09T07:58:49.470Z,3.37
2019-03-09T08:01:19.219Z,2.73
2019-03-09T08:03:49.121Z,2.43
2019-03-09T08:06:19.699Z,4.10
2019-03-09T08:08:49.397Z,3.20
2019-03-09T08:11:18.718Z,2.57
2019-03-09T08:13:48.178Z,3.03
2019-03-09T08:16:17.482Z,2.87
2019-03-09T08:18:47.008Z,2.73
2019-03-09T08:21:16.550Z,2.90
2019-03-09T08:23:45.888Z,2.23
2019-03-09T08:26:15.301Z,2.67
2019-03-09T08:28:44.608Z,3.80
2019-03-09T08:31:13.894Z,2.77
2019-03-09T08:33:43.212Z,2.60
2019-03-09T08:36:12.494Z,2.67
2019-03-09T08:38:41.895Z,3.00
2019-03-09T08:41:11.180Z,2.83
2019-03-09T08:43:40.496Z,2.47
2019-03-09T08:46:09.817Z,4.23
2019-03-09T08:48:39.096Z,3.57
2019-03-09T08:51:08.462Z,3.63
2019-03-09T08:53:37.729Z,3.37
2019-03-09T08:56:07.041Z,2.03
2019-03-09T08:58:36.356Z,2.77
2019-03-09T09:01:06.333Z,2.20
2019-03-09T09:03:35.623Z,2.60
2019-03-09T09:06:05.136Z,2.40
2019-03-09T09:08:34.408Z,4.20
2019-03-09T09:11:03.910Z,3.20
2019-03-09T09:13:33.287Z,3.87
2019-03-09T09:16:02.601Z,7.00
2019-03-09T09:18:32.023Z,3.07
2019-03-09T09:21:01.564Z,5.23
2019-03-09T09:23:30.877Z,4.00
2019-03-09T09:26:00.306Z,2.20
2019-03-09T09:28:29.608Z,3.07
2019-03-09T09:30:58.939Z,3.37
2019-03-09T09:33:28.274Z,3.27
2019-03-09T09:35:57.612Z,4.40
2019-03-09T09:38:26.914Z,3.83
2019-03-09T09:40:57.113Z,3.17
2019-03-09T09:43:26.418Z,3.47
2019-03-09T09:45:55.731Z,4.43
2019-03-09T09:48:25.007Z,8.80
2019-03-09T09:50:54.307Z,4.40
2019-03-09T09:53:23.702Z,3.57
2019-03-09T09:55:52.958Z,3.77
2019-03-09T09:58:22.276Z,5.10
2019-03-09T10:00:51.573Z,3.37
2019-03-09T10:03:20.885Z,4.47
2019-03-09T10:05:50.263Z,3.87
2019-03-09T10:08:19.556Z,2.97
2019-03-09T10:10:48.864Z,4.70
2019-03-09T10:13:18.138Z,4.77
2019-03-09T10:15:47.460Z,3.80
2019-03-09T10:18:16.770Z,5.33
2019-03-09T10:20:46.043Z,3.87
2019-03-09T10:23:15.346Z,1.90
2019-03-09T10:25:44.688Z,3.60
2019-03-09T10:28:13.964Z,2.67
2019-03-09T10:30:43.340Z,3.53
2019-03-09T10:33:12.644Z,3.77
2019-03-09T10:35:42.019Z,1.73
2019-03-09T10:38:11.320Z,3.90
2019-03-09T10:40:40.600Z,4.93
2019-03-09T10:43:09.913Z,3.27
2019-03-09T10:45:39.206Z,1.73
2019-03-09T10:48:08.627Z,3.03
2019-03-09T10:50:37.954Z,1.37
2019-03-09T10:53:07.460Z,2.10
2019-03-09T10:55:36.887Z,3.47
2019-03-09T10:58:06.275Z,3.13
2019-03-09T11:00:41.066Z,1.50
2019-03-09T11:03:10.827Z,1.70
2019-03-09T11:05:40.167Z,2.67
2019-03-09T11:08:09.598Z,1.50
2019-03-09T11:10:38.880Z,3.07
2019-03-09T11:13:08.195Z,1.53
2019-03-09T11:15:37.964Z,1.40
2019-03-09T11:18:07.589Z,2.10
2019-03-09T11:20:37.074Z,1.60
2019-03-09T11:23:06.378Z,2.17
2019-03-09T11:25:35.685Z,5.17
2019-03-09T11:28:08.016Z,2.20
2019-03-09T11:30:37.401Z,3.70
2019-03-09T11:33:06.717Z,2.53
2019-03-09T11:35:36.397Z,3.07
2019-03-09T11:38:05.835Z,2.13
2019-03-09T11:40:35.149Z,2.50
2019-03-09T11:43:04.801Z,1.83
2019-03-09T11:45:34.099Z,2.13
2019-03-09T11:48:03.460Z,1.17
2019-03-09T11:50:32.907Z,2.17
2019-03-09T11:53:02.250Z,1.40
2019-03-09T11:55:31.549Z,1.43
2019-03-09T11:58:01.148Z,3.43
2019-03-09T12:00:37.875Z,5.27
2019-03-09T12:03:07.161Z,2.57
2019-03-09T12:05:36.613Z,2.57
2019-03-09T12:08:05.988Z,2.80
2019-03-09T12:10:35.302Z,2.60
2019-03-09T12:13:04.989Z,2.80
2019-03-09T12:15:34.421Z,2.33
2019-03-09T12:18:03.735Z,1.50
2019-03-09T12:20:33.261Z,1.20
2019-03-09T12:23:20.068Z,1.80
2019-03-09T12:25:49.436Z,1.63
2019-03-09T12:28:19.131Z,2.13
2019-03-09T12:30:48.511Z,2.30
2019-03-09T12:33:18.190Z,1.37
2019-03-09T12:35:47.492Z,2.27
2019-03-09T12:38:16.877Z,1.73
2019-03-09T12:40:46.292Z,1.37
2019-03-09T12:43:15.647Z,1.47
2019-03-09T12:45:44.953Z,1.23
2019-03-09T12:48:14.274Z,1.30
2019-03-09T12:50:43.578Z,2.00
2019-03-09T12:53:14.216Z,3.33
2019-03-09T12:55:44.009Z,1.53
2019-03-09T12:58:13.568Z,2.83
2019-03-09T13:00:42.881Z,2.53
2019-03-09T13:03:12.181Z,2.23
2019-03-09T13:05:41.562Z,2.10
2019-03-09T13:08:10.961Z,2.57
2019-03-09T13:10:40.330Z,1.20
2019-03-09T13:13:10.037Z,1.47
2019-03-09T13:15:39.419Z,4.03
2019-03-09T13:18:08.746Z,1.67
2019-03-09T13:20:38.053Z,1.10
2019-03-09T13:23:07.378Z,1.17
2019-03-09T13:25:38.650Z,1.10
2019-03-09T13:28:07.734Z,2.00
2019-03-09T13:30:37.006Z,1.73
2019-03-09T13:33:06.385Z,2.20
2019-03-09T13:35:35.665Z,2.03
2019-03-09T13:38:05.096Z,2.53
2019-03-09T13:40:34.556Z,2.77
2019-03-09T13:43:04.102Z,4.00
2019-03-09T13:45:33.398Z,3.60
2019-03-09T13:48:02.845Z,4.03
2019-03-09T13:50:32.125Z,4.40
2019-03-09T13:53:01.435Z,4.30
2019-03-09T13:55:30.768Z,3.70
2019-03-09T13:58:00.060Z,3.23
2019-03-09T14:00:39.730Z,5.60
2019-03-09T14:03:00.352Z,5.03
2019-03-09T14:05:29.655Z,6.67
2019-03-09T14:07:58.939Z,3.63
2019-03-09T14:10:28.509Z,4.60
2019-03-09T14:12:58.060Z,4.80
2019-03-09T14:15:28.062Z,3.00
2019-03-09T14:17:57.367Z,4.93
2019-03-09T14:20:27.363Z,5.90
2019-03-09T14:22:56.640Z,8.37
2019-03-09T14:25:25.953Z,5.53
2019-03-09T14:27:55.284Z,5.37
2019-03-09T14:30:24.592Z,5.10
2019-03-09T14:32:53.862Z,9.73
2019-03-09T14:35:23.178Z,6.37
2019-03-09T14:37:52.567Z,10.67
2019-03-09T14:40:22.025Z,10.50
2019-03-09T14:42:51.319Z,12.00
2019-03-09T14:45:23.806Z,13.27
2019-03-09T14:47:53.090Z,12.83
2019-03-09T14:50:22.497Z,12.80
2019-03-09T14:52:51.799Z,12.00
2019-03-09T14:55:22.152Z,14.63
2019-03-09T14:57:51.470Z,12.90
2019-03-09T15:00:25.419Z,13.90
2019-03-09T15:02:54.780Z,8.27
2019-03-09T15:05:24.165Z,11.63
2019-03-09T15:07:53.523Z,12.13
2019-03-09T15:10:22.845Z,15.47
2019-03-09T15:12:52.177Z,12.20
2019-03-09T15:15:21.963Z,17.40
2019-03-09T15:17:51.516Z,11.13
2019-03-09T15:20:20.916Z,13.23
2019-03-09T15:22:50.475Z,10.23
2019-03-09T15:25:20.558Z,12.53
2019-03-09T15:27:50.224Z,13.10
2019-03-09T15:30:20.454Z,13.57
2019-03-09T15:32:49.774Z,12.13
2019-03-09T15:35:19.140Z,13.17
2019-03-09T15:37:48.542Z,15.63
2019-03-09T15:40:19.165Z,12.07
2019-03-09T15:42:48.568Z,10.47
2019-03-09T15:45:19.037Z,15.53
2019-03-09T15:47:48.686Z,12.53
2019-03-09T15:50:22.700Z,13.93
2019-03-09T15:52:52.011Z,14.13
2019-03-09T15:55:21.380Z,15.73
2019-03-09T15:57:50.711Z,13.17
2019-03-09T16:00:22.281Z,16.23
2019-03-09T16:02:52.052Z,11.93
2019-03-09T16:05:21.331Z,12.83
2019-03-09T16:07:50.731Z,9.97
2019-03-09T16:10:21.778Z,12.57
2019-03-09T16:12:51.145Z,12.10
2019-03-09T16:15:20.579Z,11.97
2019-03-09T16:17:49.912Z,11.67
2019-03-09T16:20:25.113Z,11.03
2019-03-09T16:22:54.524Z,10.63
2019-03-09T16:25:23.924Z,11.37
2019-03-09T16:27:53.657Z,11.17
2019-03-09T16:30:24.025Z,11.43
2019-03-09T16:32:53.326Z,12.90
2019-03-09T16:35:22.617Z,9.53
2019-03-09T16:37:52.574Z,8.63
2019-03-09T16:40:23.224Z,11.23
2019-03-09T16:42:52.582Z,9.90
2019-03-09T16:45:21.964Z,13.23
2019-03-09T16:47:51.650Z,9.57
2019-03-09T16:50:20.939Z,9.57
2019-03-09T16:52:50.370Z,13.17
2019-03-09T16:55:19.776Z,11.87
2019-03-09T16:57:49.113Z,10.23
2019-03-09T17:00:20.711Z,9.47
2019-03-09T17:02:50.007Z,15.13
2019-03-09T17:05:19.377Z,13.63
2019-03-09T17:07:48.730Z,15.00
2019-03-09T17:10:19.289Z,14.10
2019-03-09T17:12:49.002Z,16.77
2019-03-09T17:15:22.841Z,14.57
2019-03-09T17:17:52.231Z,14.03
2019-03-09T17:20:21.681Z,15.40
2019-03-09T17:22:51.056Z,12.70
2019-03-09T17:25:20.382Z,15.43
2019-03-09T17:27:49.697Z,15.03
2019-03-09T17:30:21.415Z,11.83
2019-03-09T17:32:52.410Z,11.83
2019-03-09T17:35:21.747Z,11.20
2019-03-09T17:37:51.787Z,9.43
2019-03-09T17:40:21.179Z,16.80
2019-03-09T17:42:50.444Z,10.33
2019-03-09T17:45:22.637Z,12.63
2019-03-09T17:47:52.105Z,12.63
2019-03-09T17:50:21.470Z,11.60
2019-03-09T17:52:50.850Z,12.50
2019-03-09T17:55:20.158Z,13.63
2019-03-09T17:57:49.537Z,13.00
2019-03-09T18:00:42.036Z,15.87
2019-03-09T18:03:05.257Z,12.13
2019-03-09T18:05:35.111Z,13.97
2019-03-09T18:08:04.420Z,15.17
2019-03-09T18:10:42.624Z,14.70
2019-03-09T18:13:11.908Z,16.80
2019-03-09T18:15:41.235Z,18.00
2019-03-09T18:18:10.536Z,15.47
2019-03-09T18:20:39.846Z,14.27
2019-03-09T18:23:09.384Z,12.17
2019-03-09T18:25:38.852Z,11.97
2019-03-09T18:28:08.173Z,11.87
2019-03-09T18:30:37.464Z,13.63
2019-03-09T18:33:06.771Z,16.10
2019-03-09T18:35:36.153Z,13.07
2019-03-09T18:38:05.528Z,12.53
2019-03-09T18:40:34.814Z,13.67
2019-03-09T18:43:04.279Z,16.20
2019-03-09T18:45:33.580Z,13.67
2019-03-09T18:48:02.963Z,9.83
2019-03-09T18:50:32.249Z,11.07
2019-03-09T18:53:01.553Z,16.20
2019-03-09T18:55:31.168Z,12.00
2019-03-09T18:58:00.443Z,14.00
2019-03-09T19:00:29.828Z,13.73
2019-03-09T19:02:59.141Z,13.67
2019-03-09T19:05:29.531Z,12.63
2019-03-09T19:07:59.010Z,13.37
2019-03-09T19:10:28.415Z,16.53
2019-03-09T19:12:57.748Z,13.40
2019-03-09T19:15:27.025Z,14.30
2019-03-09T19:17:56.353Z,16.27
2019-03-09T19:20:25.818Z,12.77
2019-03-09T19:22:55.150Z,15.07
2019-03-09T19:25:24.583Z,14.97
2019-03-09T19:27:54.054Z,16.10
2019-03-09T19:30:23.711Z,10.90
2019-03-09T19:33:00.203Z,14.17
2019-03-09T19:35:26.550Z,15.23
2019-03-09T19:37:55.853Z,12.90
2019-03-09T19:40:25.283Z,11.70
2019-03-09T19:42:54.574Z,14.07
2019-03-09T19:45:23.909Z,10.50
2019-03-09T19:47:53.869Z,14.27
2019-03-09T19:50:27.778Z,15.77
2019-03-09T19:52:58.910Z,11.97
2019-03-09T19:55:28.432Z,10.80
2019-03-09T19:57:57.721Z,13.63
2019-03-09T20:00:27.107Z,13.80
2019-03-09T20:02:56.426Z,12.60
2019-03-09T20:05:25.756Z,14.40
2019-03-09T20:07:55.098Z,15.97
2019-03-09T20:10:24.798Z,19.03
2019-03-09T20:12:54.087Z,17.50
2019-03-09T20:15:23.399Z,15.00
2019-03-09T20:17:52.696Z,21.33
2019-03-09T20:20:22.114Z,18.90
2019-03-09T20:22:51.586Z,18.30
2019-03-09T20:25:20.994Z,19.90
2019-03-09T20:27:50.293Z,15.60
2019-03-09T20:30:21.530Z,14.70
2019-03-09T20:32:50.831Z,15.63
2019-03-09T20:35:20.197Z,14.17
2019-03-09T20:37:49.682Z,15.80
2019-03-09T20:40:19.051Z,15.43
2019-03-09T20:42:48.350Z,15.97
2019-03-09T20:45:19.868Z,13.93
2019-03-09T20:47:49.182Z,12.13
2019-03-09T20:50:20.957Z,14.60
2019-03-09T20:52:50.292Z,17.20
2019-03-09T20:55:20.825Z,21.57
2019-03-09T20:57:50.577Z,12.53
2019-03-09T21:00:23.799Z,18.47
2019-03-09T21:02:54.176Z,9.77
2019-03-09T21:05:24.495Z,15.10
2019-03-09T21:07:55.148Z,17.47
2019-03-09T21:10:24.454Z,19.37
2019-03-09T21:13:05.043Z,21.50
2019-03-09T21:15:34.513Z,19.50
2019-03-09T21:18:03.984Z,20.07
2019-03-09T21:20:33.267Z,19.13
2019-03-09T21:23:02.677Z,20.30
2019-03-09T21:25:31.963Z,18.30
2019-03-09T21:28:01.460Z,27.00
2019-03-09T21:30:30.814Z,20.73
2019-03-09T21:33:00.226Z,23.47
2019-03-09T21:35:29.525Z,22.60
2019-03-09T21:37:58.858Z,18.67
2019-03-09T21:40:28.238Z,17.30
2019-03-09T21:42:57.630Z,19.90
2019-03-09T21:45:27.004Z,20.93
2019-03-09T21:47:56.321Z,15.97
2019-03-09T21:50:25.927Z,20.47
2019-03-09T21:52:55.254Z,20.03
2019-03-09T21:55:24.563Z,23.40
2019-03-09T21:57:53.932Z,20.93
2019-03-09T22:00:23.499Z,21.57
2019-03-09T22:02:52.778Z,19.53
2019-03-09T22:05:22.160Z,21.13
2019-03-09T22:07:51.509Z,17.70
2019-03-09T22:10:20.840Z,20.23
2019-03-09T22:12:50.576Z,16.40
2019-03-09T22:15:19.959Z,18.77
2019-03-09T22:17:49.283Z,20.13
2019-03-09T22:20:20.484Z,25.83
2019-03-09T22:22:49.681Z,19.70
2019-03-09T22:25:19.272Z,13.00
2019-03-09T22:27:48.786Z,21.53
2019-03-09T22:30:20.672Z,17.03
2019-03-09T22:32:50.067Z,15.43
2019-03-09T22:35:19.525Z,19.43
2019-03-09T22:37:50.384Z,19.87
2019-03-09T22:40:20.307Z,15.50
2019-03-09T22:42:49.611Z,21.17
2019-03-09T22:45:18.929Z,22.07
2019-03-09T22:47:48.284Z,18.30
2019-03-09T22:50:19.780Z,21.27
2019-03-09T22:52:49.096Z,17.37
2019-03-09T22:55:18.647Z,17.03
2019-03-09T22:57:48.045Z,19.40
2019-03-09T23:00:24.269Z,43.03
2019-03-09T23:02:53.727Z,27.03
2019-03-09T23:05:23.149Z,22.37
2019-03-09T23:07:52.605Z,19.03
2019-03-09T23:10:26.092Z,24.10
2019-03-09T23:12:55.486Z,16.27
2019-03-09T23:15:25.018Z,19.60
2019-03-09T23:17:54.622Z,22.07
2019-03-09T23:20:23.944Z,16.80
2019-03-09T23:22:53.441Z,24.90
2019-03-09T23:25:22.959Z,18.47
2019-03-09T23:27:52.265Z,19.33
2019-03-09T23:30:23.109Z,29.20
2019-03-09T23:32:52.607Z,21.67
2019-03-09T23:35:22.540Z,24.97
2019-03-09T23:37:51.917Z,22.57
2019-03-09T23:40:23.108Z,17.73
2019-03-09T23:42:52.921Z,20.47
2019-03-09T23:45:23.852Z,19.70
2019-03-09T23:47:55.577Z,16.90
2019-03-09T23:50:26.407Z,23.03
2019-03-09T23:52:56.871Z,19.70
2019-03-09T23:55:27.010Z,17.90
2019-03-09T23:57:57.069Z,19.87
